Time;durP1;ratioP1;P1;durP2;ratioP2;P2;SDS_P1;SDS_P2;PMS_P1;PMS_P2;Temp;Humidity;BMP_temperature;BMP_pressure;BME280_temperature;BME280_humidity;BME280_pressure;Samples;Min_cycle;Max_cycle;Signal;HPM_P1;HPM_P2
2022/05/04 00:01:00;;;;;;;7.30;3.08;;;;;;;6.02;82.87;102202.25;5036939;28;20472;-69
2022/05/04 00:03:25;;;;;;;8.68;3.38;;;;;;;6.02;82.84;102200.47;5053552;28;20612;-69
2022/05/04 00:05:50;;;;;;;9.93;3.67;;;;;;;6.04;82.76;102201.25;5052818;28;20032;-69
2022/05/04 00:08:16;;;;;;;10.43;3.70;;;;;;;6.05;82.59;102204.78;5071577;28;20039;-68
2022/05/04 00:10:42;;;;;;;11.20;4.00;;;;;;;6.06;82.75;102202.06;5052752;28;20082;-68
2022/05/04 00:13:07;;;;;;;13.70;3.25;;;;;;;6.08;82.84;102207.25;5036560;28;20124;-69
2022/05/04 00:15:32;;;;;;;15.98;4.35;;;;;;;6.09;83.02;102201.91;5036304;28;20469;-72
2022/05/04 00:17:58;;;;;;;11.38;3.40;;;;;;;6.10;82.77;102202.75;5053377;28;20033;-70
2022/05/04 00:20:23;;;;;;;6.32;2.80;;;;;;;6.11;82.29;102199.19;5053522;28;20117;-69
2022/05/04 00:22:49;;;;;;;10.35;3.47;;;;;;;6.13;82.34;102199.94;5070623;28;20480;-69
2022/05/04 00:25:14;;;;;;;10.68;3.35;;;;;;;6.12;81.94;102195.56;5053333;28;20033;-70
2022/05/04 00:27:39;;;;;;;11.73;3.25;;;;;;;6.11;82.10;102194.72;5052511;28;20101;-70
2022/05/04 00:30:06;;;;;;;9.93;3.67;;;;;;;6.11;81.65;102196.53;5053200;28;20465;-69
2022/05/04 00:32:31;;;;;;;9.85;3.63;;;;;;;6.11;81.56;102193.88;5070259;28;20140;-69
2022/05/04 00:34:58;;;;;;;6.93;3.03;;;;;;;6.10;81.50;102194.81;5070754;28;20064;-69
2022/05/04 00:37:23;;;;;;;9.80;3.30;;;;;;;6.08;81.67;102197.53;5071559;28;20544;-70
2022/05/04 00:39:49;;;;;;;11.50;3.28;;;;;;;6.06;80.61;102193.25;5052583;28;20120;-69
2022/05/04 00:42:20;;;;;;;8.43;3.58;;;;;;;6.04;80.63;102195.97;5071219;28;20070;-69
2022/05/04 00:44:49;;;;;;;9.00;3.13;;;;;;;6.02;80.34;102194.31;5052791;28;20189;-69
2022/05/04 00:47:15;;;;;;;11.88;3.17;;;;;;;5.99;80.55;102192.72;5053002;28;20029;-68
2022/05/04 00:49:42;;;;;;;11.48;3.67;;;;;;;5.96;80.72;102196.31;5052397;28;20039;-69
2022/05/04 00:52:11;;;;;;;8.35;3.22;;;;;;;5.93;80.82;102193.84;5052904;28;20033;-69
2022/05/04 00:54:37;;;;;;;10.55;3.60;;;;;;;5.90;80.69;102187.84;5070546;28;20036;-73
2022/05/04 00:57:04;;;;;;;7.07;3.47;;;;;;;5.88;81.04;102190.56;5070796;28;20028;-70
2022/05/04 00:59:31;;;;;;;9.57;3.25;;;;;;;5.88;81.11;102180.00;5070869;28;20032;-69
2022/05/04 01:01:57;;;;;;;9.23;3.67;;;;;;;5.86;80.94;102184.50;5069781;28;20032;-68
2022/05/04 01:04:22;;;;;;;9.63;3.13;;;;;;;5.88;80.97;102177.38;5052820;28;20032;-68
2022/05/04 01:06:48;;;;;;;7.43;3.35;;;;;;;5.87;81.40;102175.66;5052111;28;20033;-68
2022/05/04 01:09:14;;;;;;;13.48;4.13;;;;;;;5.87;81.70;102180.06;5070518;28;20349;-68
2022/05/04 01:11:40;;;;;;;8.88;3.30;;;;;;;5.86;81.54;102178.38;5069901;28;20056;-73
2022/05/04 01:14:11;;;;;;;6.60;3.30;;;;;;;5.86;81.67;102175.72;5070549;28;20032;-68
2022/05/04 01:16:40;;;;;;;8.48;3.45;;;;;;;5.84;81.07;102181.09;5070178;28;20036;-68
2022/05/04 01:19:06;;;;;;;6.05;3.22;;;;;;;5.83;81.23;102174.91;5070276;28;20115;-68
2022/05/04 01:21:32;;;;;;;6.78;3.20;;;;;;;5.78;80.97;102173.47;5070166;28;20033;-68
2022/05/04 01:23:58;;;;;;;8.60;3.40;;;;;;;5.74;80.89;102171.91;5034681;28;20032;-68
2022/05/04 01:26:23;;;;;;;10.40;3.55;;;;;;;5.65;80.85;102170.56;5069928;28;20123;-68
2022/05/04 01:28:49;;;;;;;9.00;3.50;;;;;;;5.53;81.08;102172.00;5051543;28;20104;-69
2022/05/04 01:31:14;;;;;;;12.40;3.78;;;;;;;5.39;81.66;102170.03;5070414;28;20383;-69
2022/05/04 01:33:40;;;;;;;8.77;4.05;;;;;;;5.26;82.11;102171.53;5083630;28;20096;-73
2022/05/04 01:36:06;;;;;;;10.65;4.32;;;;;;;5.09;82.68;102165.25;5089826;28;20120;-68
2022/05/04 01:38:33;;;;;;;10.73;3.88;;;;;;;4.93;82.92;102161.63;5088811;28;20085;-68
2022/05/04 01:40:58;;;;;;;8.77;4.03;;;;;;;4.76;83.44;102165.00;5087841;28;20028;-68
2022/05/04 01:43:24;;;;;;;10.10;3.75;;;;;;;4.60;84.02;102167.47;5088351;28;20105;-70
2022/05/04 01:45:49;;;;;;;9.23;3.65;;;;;;;4.44;84.05;102164.66;5089918;28;20036;-69
2022/05/04 01:48:15;;;;;;;8.85;4.13;;;;;;;4.28;84.37;102168.88;5089856;28;20146;-69
2022/05/04 01:50:40;;;;;;;11.32;3.92;;;;;;;4.13;84.76;102163.31;5088640;28;20248;-69
2022/05/04 01:53:06;;;;;;;10.88;3.67;;;;;;;4.00;84.99;102162.13;5089545;28;20032;-70
2022/05/04 01:55:35;;;;;;;10.23;3.58;;;;;;;3.87;85.06;102157.38;5089752;28;20137;-69
2022/05/04 01:58:01;;;;;;;9.27;3.50;;;;;;;3.78;85.36;102156.91;5089235;28;20513;-69
2022/05/04 02:00:26;;;;;;;8.90;4.03;;;;;;;3.68;85.36;102161.69;5088564;28;20126;-69
2022/05/04 02:02:53;;;;;;;7.90;3.47;;;;;;;3.57;85.37;102162.13;5087729;28;20036;-69
2022/05/04 02:05:19;;;;;;;6.20;3.55;;;;;;;3.48;85.32;102159.88;5089997;28;20028;-70
2022/05/04 02:07:45;;;;;;;4.80;3.08;;;;;;;3.38;85.39;102153.25;5088022;28;20047;-73
2022/05/04 02:10:11;;;;;;;7.10;3.53;;;;;;;3.29;85.42;102159.72;5089292;28;20126;-70
2022/05/04 02:12:38;;;;;;;8.10;3.70;;;;;;;3.20;85.53;102163.56;5088420;28;20142;-70
2022/05/04 02:15:04;;;;;;;5.13;3.30;;;;;;;3.16;85.68;102156.69;5087758;28;20040;-70
2022/05/04 02:17:30;;;;;;;7.78;3.70;;;;;;;3.10;85.30;102156.94;5089512;28;20039;-70
2022/05/04 02:19:55;;;;;;;9.10;4.03;;;;;;;3.03;85.20;102166.84;5089269;28;20040;-70
2022/05/04 02:22:21;;;;;;;5.95;3.63;;;;;;;2.97;85.34;102153.91;5089793;28;20413;-69
2022/05/04 02:24:46;;;;;;;5.78;3.30;;;;;;;2.91;85.75;102156.75;5090704;28;20432;-73
2022/05/04 02:27:12;;;;;;;7.32;3.45;;;;;;;2.84;85.38;102150.88;5088510;28;20123;-69
2022/05/04 02:29:37;;;;;;;9.05;4.20;;;;;;;2.78;85.55;102151.97;5087945;28;20039;-69
2022/05/04 02:32:03;;;;;;;7.53;3.75;;;;;;;2.73;85.85;102150.41;5084969;28;20045;-70
2022/05/04 02:34:28;;;;;;;7.35;3.67;;;;;;;2.67;85.83;102158.53;5070847;28;20086;-70
2022/05/04 02:39:38;;;;;;;9.18;3.60;;;;;;;2.57;86.32;102160.66;5070098;28;20125;-69
2022/05/04 02:42:03;;;;;;;10.07;3.78;;;;;;;2.53;86.01;102156.41;5051043;28;20079;-69
2022/05/04 02:44:29;;;;;;;6.00;3.78;;;;;;;2.47;85.89;102155.69;5069322;28;20055;-69
2022/05/04 02:46:54;;;;;;;6.25;3.60;;;;;;;2.43;86.06;102147.97;5050747;28;20131;-70
2022/05/04 02:49:19;;;;;;;5.55;4.05;;;;;;;2.38;86.68;102148.13;5034235;28;20036;-68
2022/05/04 02:51:45;;;;;;;11.30;4.35;;;;;;;2.35;86.83;102147.41;5051318;28;20119;-69
2022/05/04 02:54:11;;;;;;;6.18;3.72;;;;;;;2.29;86.90;102146.69;5050354;28;20115;-69
2022/05/04 02:56:36;;;;;;;10.40;4.15;;;;;;;2.25;87.41;102144.22;5050812;28;20054;-69
2022/05/04 02:59:02;;;;;;;9.05;4.63;;;;;;;2.21;88.53;102142.59;5068680;28;20071;-69
2022/05/04 03:04:12;;;;;;;7.85;3.80;;;;;;;2.12;88.44;102146.44;5068559;28;20108;-69
2022/05/04 03:06:40;;;;;;;10.07;3.90;;;;;;;2.10;88.84;102142.97;5068982;28;20377;-69
2022/05/04 03:09:08;;;;;;;7.68;4.30;;;;;;;2.05;88.29;102143.16;5050037;28;20119;-69
2022/05/04 03:14:20;;;;;;;5.95;4.18;;;;;;;1.97;88.76;102141.69;5069074;28;20090;-68
2022/05/04 03:16:47;;;;;;;8.13;4.20;;;;;;;1.91;88.22;102140.13;5069094;28;20037;-68
2022/05/04 03:19:13;;;;;;;6.68;4.13;;;;;;;1.87;88.13;102139.38;5068103;28;20028;-68
2022/05/04 03:21:38;;;;;;;8.13;3.72;;;;;;;1.84;87.90;102136.00;5068331;28;20383;-69
2022/05/04 03:24:04;;;;;;;7.72;4.00;;;;;;;1.80;88.09;102131.75;5050425;28;20041;-68
2022/05/04 03:26:29;;;;;;;5.95;4.28;;;;;;;1.75;88.24;102121.41;5068707;28;20048;-69
2022/05/04 03:28:55;;;;;;;9.32;4.30;;;;;;;1.73;89.01;102126.72;5050324;28;20414;-73
2022/05/04 03:31:20;;;;;;;9.45;4.45;;;;;;;1.71;88.81;102127.66;5068597;28;20028;-69
2022/05/04 03:33:46;;;;;;;6.13;3.72;;;;;;;1.65;88.48;102126.09;5083570;28;20079;-69
2022/05/04 03:36:11;;;;;;;6.75;4.20;;;;;;;1.62;88.39;102123.56;5088010;28;20087;-69
2022/05/04 03:38:37;;;;;;;7.40;4.28;;;;;;;1.59;88.97;102119.28;5087335;28;20149;-69
2022/05/04 03:41:02;;;;;;;5.53;3.92;;;;;;;1.54;89.15;102115.94;5086642;28;20047;-69
2022/05/04 03:43:28;;;;;;;9.27;4.55;;;;;;;1.52;88.80;102124.78;5070211;28;20160;-69
2022/05/04 03:45:54;;;;;;;9.18;3.90;;;;;;;1.47;88.88;102119.69;5088663;28;20036;-69
2022/05/04 03:48:20;;;;;;;8.38;4.38;;;;;;;1.44;88.88;102116.31;5086338;28;20058;-71
2022/05/04 03:50:46;;;;;;;9.88;4.55;;;;;;;1.42;88.98;102121.59;5088395;28;20408;-70
2022/05/04 03:53:12;;;;;;;10.02;4.65;;;;;;;1.39;88.90;102108.59;5088230;28;20471;-69
2022/05/04 03:55:38;;;;;;;10.18;4.68;;;;;;;1.37;88.88;102115.63;5087323;28;20471;-69
2022/05/04 03:58:03;;;;;;;8.90;4.75;;;;;;;1.35;89.10;102120.91;5087890;28;20036;-70
2022/05/04 04:00:29;;;;;;;9.77;4.80;;;;;;;1.33;89.15;102129.72;5088725;28;20165;-69
2022/05/04 04:02:54;;;;;;;11.15;4.35;;;;;;;1.30;89.37;102128.09;5086887;28;20084;-70
2022/05/04 04:05:20;;;;;;;10.82;4.68;;;;;;;1.30;89.63;102130.72;5088032;28;20063;-68
2022/05/04 04:07:45;;;;;;;10.05;5.03;;;;;;;1.30;89.83;102121.97;5105509;28;20047;-68
2022/05/04 04:10:11;;;;;;;8.35;4.65;;;;;;;1.28;89.40;102122.00;5073028;28;20376;-68
2022/05/04 04:12:37;;;;;;;8.20;4.70;;;;;;;1.26;89.69;102120.38;5090405;28;20115;-69
2022/05/04 04:15:02;;;;;;;9.25;4.80;;;;;;;1.26;89.97;102115.97;5107006;28;20081;-70
2022/05/04 04:17:29;;;;;;;10.35;4.85;;;;;;;1.27;90.34;102120.31;5092125;28;20475;-68
2022/05/04 04:22:39;;;;;;;14.43;4.35;;;;;;;1.25;89.72;102122.09;5091834;28;20123;-69
2022/05/04 04:25:05;;;;;;;8.88;5.00;;;;;;;1.24;89.72;102128.28;5090996;28;20480;-70
2022/05/04 04:27:34;;;;;;;9.73;4.88;;;;;;;1.26;89.80;102130.84;5091324;28;20456;-69
2022/05/04 04:30:00;;;;;;;14.40;4.70;;;;;;;1.24;90.08;102123.03;5091562;28;20539;-69
2022/05/04 04:32:26;;;;;;;8.07;5.00;;;;;;;1.26;90.01;102128.22;5088878;28;20154;-69
2022/05/04 04:34:51;;;;;;;10.48;4.63;;;;;;;1.27;90.19;102138.66;5091373;28;20036;-69
2022/05/04 04:37:16;;;;;;;5.55;4.10;;;;;;;1.29;90.43;102133.38;5089110;28;20098;-69
2022/05/04 04:39:42;;;;;;;9.18;5.10;;;;;;;1.30;90.72;102133.34;5089951;28;20111;-69
2022/05/04 04:42:07;;;;;;;8.00;5.20;;;;;;;1.34;90.86;102141.94;5071948;28;20048;-70
2022/05/04 04:44:33;;;;;;;10.35;4.80;;;;;;;1.38;91.14;102141.81;5090873;28;20071;-70
2022/05/04 04:46:58;;;;;;;12.93;5.20;;;;;;;1.42;91.47;102142.59;5090928;28;20043;-69
2022/05/04 04:49:25;;;;;;;10.48;5.43;;;;;;;1.47;91.92;102140.66;5089012;28;20604;-68
2022/05/04 04:51:50;;;;;;;15.50;5.28;;;;;;;1.51;92.13;102146.69;5089652;28;20040;-68
2022/05/04 04:54:16;;;;;;;7.75;4.90;;;;;;;1.55;92.15;102140.41;5088888;28;20055;-68
2022/05/04 04:56:41;;;;;;;11.18;5.47;;;;;;;1.61;92.40;102147.22;5089599;28;20040;-69
2022/05/04 04:59:07;;;;;;;10.75;5.55;;;;;;;1.66;92.84;102143.56;5090367;28;20108;-73
2022/05/04 05:01:32;;;;;;;9.95;5.10;;;;;;;1.70;93.23;102136.44;5089185;28;20151;-70
2022/05/04 05:03:57;;;;;;;11.30;5.30;;;;;;;1.76;93.28;102142.34;5091151;28;20032;-69
2022/05/04 05:06:24;;;;;;;10.55;5.28;;;;;;;1.83;93.46;102137.75;5090213;28;20034;-69
2022/05/04 05:08:51;;;;;;;11.85;6.07;;;;;;;1.91;93.65;102140.13;5090801;28;20184;-69
2022/05/04 05:11:17;;;;;;;11.20;6.15;;;;;;;2.01;94.00;102140.69;5088828;28;20119;-68
2022/05/04 05:16:27;;;;;;;10.05;6.15;;;;;;;2.24;94.63;102153.00;5090052;28;20537;-68
2022/05/04 05:18:52;;;;;;;13.32;6.93;;;;;;;2.35;94.93;102150.03;5089132;28;20036;-68
2022/05/04 05:21:18;;;;;;;9.38;6.03;;;;;;;2.46;95.39;102146.13;5088630;28;20031;-69
2022/05/04 05:23:44;;;;;;;10.93;6.13;;;;;;;2.58;95.46;102146.56;5090520;28;20088;-69
2022/05/04 05:26:09;;;;;;;10.88;6.88;;;;;;;2.69;95.75;102140.91;5089846;28;20118;-72
2022/05/04 05:28:35;;;;;;;10.80;6.60;;;;;;;2.80;95.97;102144.88;5088853;28;20186;-68
2022/05/04 05:31:01;;;;;;;12.82;7.13;;;;;;;2.91;95.95;102143.63;5088885;28;20104;-69
2022/05/04 05:33:26;;;;;;;12.38;6.97;;;;;;;3.03;96.12;102148.44;5069282;28;20523;-71
2022/05/04 05:35:52;;;;;;;15.10;7.25;;;;;;;3.13;96.12;102141.88;5049130;28;20425;-71
2022/05/04 05:38:17;;;;;;;14.70;6.63;;;;;;;3.27;96.19;102136.09;5066789;28;20043;-71
2022/05/04 05:40:43;;;;;;;11.90;6.65;;;;;;;3.42;96.17;102144.28;5049314;28;20392;-71
2022/05/04 05:43:09;;;;;;;9.65;5.35;;;;;;;3.57;96.35;102138.44;5067320;28;20085;-68
2022/05/04 05:45:34;;;;;;;13.85;6.60;;;;;;;3.70;96.38;102138.78;5047886;28;20119;-69
2022/05/04 05:48:01;;;;;;;17.40;6.57;;;;;;;3.85;96.10;102143.44;5049128;28;20489;-69
2022/05/04 05:50:26;;;;;;;13.40;6.50;;;;;;;4.01;95.64;102141.00;5066644;28;20071;-69
2022/05/04 05:52:52;;;;;;;15.88;7.00;;;;;;;4.15;95.23;102150.09;5032416;28;20388;-69
2022/05/04 05:55:17;;;;;;;11.75;6.10;;;;;;;4.33;94.51;102144.03;5066599;28;20040;-68
2022/05/04 05:57:43;;;;;;;15.70;7.25;;;;;;;4.50;93.59;102145.09;5048925;28;20028;-70
2022/05/04 06:00:09;;;;;;;14.10;6.28;;;;;;;4.72;94.09;102147.63;5048598;28;20100;-69
2022/05/04 06:02:34;;;;;;;15.85;6.47;;;;;;;4.91;93.49;102143.22;5031370;28;20843;-69
2022/05/04 06:05:00;;;;;;;16.48;6.32;;;;;;;5.14;92.67;102149.22;5066829;28;20541;-71
2022/05/04 06:07:26;;;;;;;15.85;5.80;;;;;;;5.36;90.82;102146.41;5066352;28;20047;-70
2022/05/04 06:09:52;;;;;;;15.95;6.10;;;;;;;5.63;89.48;102148.66;5031966;28;20139;-69
2022/05/04 06:12:17;;;;;;;10.98;5.70;;;;;;;5.91;88.08;102145.50;5066245;28;20021;-71
2022/05/04 06:14:43;;;;;;;10.98;5.68;;;;;;;6.18;85.13;102148.56;5048416;28;20032;-70
2022/05/04 06:17:08;;;;;;;10.32;5.30;;;;;;;6.42;80.32;102152.66;5066887;28;20145;-71
2022/05/04 06:19:34;;;;;;;8.60;4.70;;;;;;;6.65;77.92;102141.72;5048056;28;20064;-69
2022/05/04 06:21:59;;;;;;;12.20;5.00;;;;;;;6.85;76.93;102147.72;5066436;28;20116;-68
2022/05/04 06:24:27;;;;;;;8.68;4.35;;;;;;;7.00;75.59;102146.91;5065888;28;20040;-70
2022/05/04 06:26:53;;;;;;;10.30;4.20;;;;;;;7.11;73.52;102148.13;5048870;28;20036;-70
2022/05/04 06:29:18;;;;;;;9.70;4.65;;;;;;;7.23;73.64;102155.38;5065355;28;20039;-69
2022/05/04 06:34:27;;;;;;;12.23;5.60;;;;;;;7.30;72.02;102153.22;5065642;28;20070;-69
2022/05/04 06:36:53;;;;;;;17.40;5.35;;;;;;;7.37;72.21;102163.38;5048509;28;20036;-71
2022/05/04 06:39:18;;;;;;;12.88;5.78;;;;;;;7.65;72.38;102158.34;5048161;28;20537;-68
2022/05/04 06:41:44;;;;;;;11.70;4.57;;;;;;;8.03;70.65;102158.78;5066364;28;20112;-69
2022/05/04 06:44:09;;;;;;;8.10;4.55;;;;;;;8.41;69.24;102163.59;5066620;28;20029;-69
2022/05/04 06:46:40;;;;;;;10.23;4.45;;;;;;;8.69;67.42;102156.63;5065974;28;20036;-68
2022/05/04 06:49:06;;;;;;;9.13;4.75;;;;;;;8.79;65.94;102157.78;5032771;28;20135;-69
2022/05/04 06:51:33;;;;;;;10.68;5.15;;;;;;;9.02;65.75;102160.78;5065747;28;20124;-70
2022/05/04 06:53:58;;;;;;;11.32;4.72;;;;;;;9.19;63.91;102165.03;5048553;28;20052;-70
2022/05/04 06:56:24;;;;;;;11.55;5.35;;;;;;;9.35;62.47;102165.75;5047980;28;20052;-72
2022/05/04 06:58:49;;;;;;;11.68;5.30;;;;;;;9.38;61.80;102163.84;5031404;28;20036;-71
2022/05/04 07:01:14;;;;;;;12.52;5.07;;;;;;;9.42;61.28;102163.56;5031839;28;20029;-68
2022/05/04 07:03:40;;;;;;;9.95;4.80;;;;;;;9.51;61.28;102164.78;5047414;28;20513;-69
2022/05/04 07:06:06;;;;;;;17.92;5.53;;;;;;;9.56;60.48;102157.34;5066082;28;20033;-69
2022/05/04 07:08:32;;;;;;;10.25;5.25;;;;;;;9.62;61.49;102164.91;5065372;28;20195;-69
2022/05/04 07:10:58;;;;;;;13.10;5.68;;;;;;;9.76;63.18;102160.50;5047723;28;20139;-70
2022/05/04 07:13:23;;;;;;;9.50;5.30;;;;;;;9.76;58.95;102163.16;5065107;28;20044;-68
2022/05/04 07:15:49;;;;;;;11.35;5.57;;;;;;;9.83;60.30;102157.31;5065697;28;20039;-70
2022/05/04 07:18:15;;;;;;;13.95;5.38;;;;;;;9.50;58.83;102150.63;5065860;28;20485;-68
2022/05/04 07:20:40;;;;;;;13.95;6.80;;;;;;;9.17;61.42;102154.50;5065012;28;20532;-69
2022/05/04 07:23:06;;;;;;;9.88;5.57;;;;;;;9.09;61.64;102151.50;5048077;28;20441;-70
2022/05/04 07:25:31;;;;;;;13.00;6.28;;;;;;;8.98;62.59;102160.13;5049502;28;20048;-67
2022/05/04 07:27:56;;;;;;;10.68;5.80;;;;;;;8.75;62.88;102153.59;5066103;28;20401;-67
2022/05/04 07:30:22;;;;;;;16.13;6.53;;;;;;;8.69;64.53;102161.94;5067113;28;20507;-76
2022/05/04 07:32:47;;;;;;;11.68;6.43;;;;;;;8.64;63.85;102153.41;5064465;28;20130;-69
2022/05/04 07:35:13;;;;;;;13.60;6.60;;;;;;;8.69;64.46;102153.97;5084235;28;20420;-69
2022/05/04 07:37:40;;;;;;;17.35;6.30;;;;;;;8.68;64.26;102152.28;5067142;28;20059;-68
2022/05/04 07:42:50;;;;;;;16.45;5.80;;;;;;;8.88;64.54;102152.81;5088183;28;20455;-70
2022/05/04 07:45:16;;;;;;;14.65;5.68;;;;;;;8.93;63.96;102156.91;5088061;28;20044;-69
2022/05/04 07:47:41;;;;;;;11.27;5.55;;;;;;;8.92;62.77;102155.19;5101754;28;20393;-70
2022/05/04 07:50:08;;;;;;;14.82;5.43;;;;;;;8.87;62.21;102153.75;5108437;28;20043;-68
2022/05/04 07:52:34;;;;;;;11.10;5.40;;;;;;;8.86;61.83;102152.94;5112054;28;20101;-68
2022/05/04 07:55:00;;;;;;;15.07;5.65;;;;;;;8.90;63.20;102156.25;5112576;28;20513;-68
2022/05/04 07:57:26;;;;;;;10.23;5.53;;;;;;;8.94;65.05;102152.44;5110573;28;20114;-73
2022/05/04 08:05:22;;;;;;;11.40;5.55;;;;;;;9.08;62.06;102157.75;5111650;28;20100;-68
2022/05/04 08:07:48;;;;;;;9.50;5.93;;;;;;;9.38;63.24;102154.06;5109892;28;20585;-67
2022/05/04 08:10:13;;;;;;;14.70;6.13;;;;;;;9.68;62.04;102161.00;5111862;28;20073;-68
2022/05/04 08:12:39;;;;;;;17.38;5.95;;;;;;;10.03;60.38;102155.13;5109966;28;20046;-68
2022/05/04 08:15:05;;;;;;;15.82;6.10;;;;;;;10.35;59.50;102158.31;5111753;28;20056;-68
2022/05/04 08:17:31;;;;;;;8.45;5.10;;;;;;;10.58;61.65;102150.53;5111127;28;20420;-69
2022/05/04 08:19:58;;;;;;;16.13;5.47;;;;;;;10.91;57.31;102155.31;5110852;28;20072;-68
2022/05/04 08:22:23;;;;;;;13.32;5.35;;;;;;;11.07;57.03;102157.69;5112137;28;20024;-70
2022/05/04 08:24:49;;;;;;;10.57;5.90;;;;;;;11.35;57.68;102163.72;5110315;28;20036;-69
2022/05/04 08:27:14;;;;;;;14.45;5.43;;;;;;;11.73;55.52;102157.34;5112307;28;20448;-68
2022/05/04 08:29:40;;;;;;;17.23;5.95;;;;;;;11.85;56.36;102150.25;5110137;28;20039;-69
2022/05/04 08:32:06;;;;;;;10.40;5.10;;;;;;;12.06;55.17;102158.50;5107367;28;20126;-70
2022/05/04 08:34:31;;;;;;;9.65;5.47;;;;;;;12.13;54.76;102159.72;5056511;28;20036;-74
2022/05/04 08:36:57;;;;;;;13.90;5.40;;;;;;;12.00;54.17;102158.94;5091341;28;20031;-68
2022/05/04 08:39:23;;;;;;;13.18;5.53;;;;;;;12.17;53.70;102152.34;5092053;28;20043;-70
2022/05/04 08:41:48;;;;;;;12.55;5.20;;;;;;;12.67;53.27;102154.72;5072548;28;20207;-68
2022/05/04 08:44:14;;;;;;;14.45;5.45;;;;;;;13.21;51.60;102158.44;5073137;28;20115;-68
2022/05/04 08:46:43;;;;;;;9.80;5.30;;;;;;;13.67;50.56;102146.66;5072248;28;20028;-68
2022/05/04 08:49:13;;;;;;;8.23;4.90;;;;;;;13.91;49.58;102150.94;5091091;28;20032;-69
2022/05/04 08:51:40;;;;;;;10.80;4.88;;;;;;;14.31;48.22;102160.94;5055827;28;20185;-68
2022/05/04 08:54:07;;;;;;;12.50;4.90;;;;;;;14.01;45.96;102151.88;5071922;28;20046;-70
2022/05/04 08:56:34;;;;;;;12.10;4.60;;;;;;;14.32;47.13;102151.09;5090792;28;20108;-75
2022/05/04 08:59:07;;;;;;;15.55;4.80;;;;;;;14.65;47.14;102154.56;5056204;28;20056;-70
2022/05/04 09:01:39;;;;;;;13.25;5.05;;;;;;;15.10;45.20;102156.81;5090972;28;20032;-70
2022/05/04 09:04:06;;;;;;;14.95;5.50;;;;;;;15.69;44.97;102149.72;5091172;28;20051;-69
2022/05/04 09:06:33;;;;;;;17.13;5.10;;;;;;;16.48;42.34;102142.41;5091287;28;20042;-70
2022/05/04 09:09:03;;;;;;;11.23;4.90;;;;;;;17.43;41.46;102146.63;5072691;28;20083;-70
2022/05/04 09:11:28;;;;;;;7.55;4.35;;;;;;;18.47;38.77;102141.59;5091454;28;20099;-69
2022/05/04 09:13:54;;;;;;;11.60;4.65;;;;;;;19.42;38.06;102146.84;5072449;28;20452;-70
2022/05/04 09:16:31;;;;;;;9.10;4.68;;;;;;;19.52;36.19;102134.06;5072955;28;20381;-72
2022/05/04 09:19:00;;;;;;;10.18;4.53;;;;;;;19.60;35.47;102135.94;5090238;28;20040;-70
2022/05/04 09:21:26;;;;;;;12.32;4.85;;;;;;;19.57;36.45;102133.56;5090829;28;20024;-71
2022/05/04 09:23:52;;;;;;;10.85;4.78;;;;;;;19.58;36.87;102132.56;5071786;28;20344;-70
2022/05/04 09:26:22;;;;;;;12.52;5.15;;;;;;;20.15;35.52;102123.59;5090646;28;20388;-71
2022/05/04 09:29:01;;;;;;;11.25;4.80;;;;;;;20.42;33.06;102122.41;5090231;28;20044;-70
2022/05/04 09:31:30;;;;;;;9.57;4.60;;;;;;;21.02;33.53;102112.03;5090614;28;20055;-70
2022/05/04 09:33:58;;;;;;;9.00;4.30;;;;;;;21.69;32.04;102113.31;5109802;28;20067;-70
2022/05/04 09:36:34;;;;;;;10.13;5.30;;;;;;;21.91;30.90;102111.56;5111013;28;20034;-69
2022/05/04 09:44:54;;;;;;;7.03;4.15;;;;;;;19.85;33.70;102109.81;5110396;28;20093;-70
2022/05/04 09:47:21;;;;;;;11.55;4.15;;;;;;;20.47;35.26;102113.75;5110894;28;20099;-70
2022/05/04 09:49:50;;;;;;;9.80;3.22;;;;;;;21.23;30.43;102114.09;5110299;28;20119;-70
2022/05/04 09:52:24;;;;;;;8.60;3.75;;;;;;;21.05;31.60;102116.22;5110603;28;20040;-71
2022/05/04 09:54:52;;;;;;;8.10;3.25;;;;;;;21.63;31.63;102114.00;5110562;28;20062;-71
2022/05/04 09:57:20;;;;;;;7.00;3.00;;;;;;;22.08;30.19;102116.81;5092456;28;20502;-71
2022/05/04 09:59:46;;;;;;;7.10;3.08;;;;;;;21.40;29.78;102114.81;5075213;28;20038;-71
2022/05/04 10:02:13;;;;;;;9.77;3.45;;;;;;;20.31;32.58;102111.09;5092076;28;20030;-71
2022/05/04 10:04:39;;;;;;;14.90;4.05;;;;;;;20.55;33.96;102119.13;5091890;28;20031;-70
2022/05/04 10:07:05;;;;;;;7.55;3.40;;;;;;;20.67;32.42;102116.09;5091504;28;20038;-71
2022/05/04 10:09:32;;;;;;;11.80;3.25;;;;;;;21.28;31.10;102110.84;5110545;28;20063;-70
2022/05/04 10:11:59;;;;;;;7.22;2.92;;;;;;;20.80;31.96;102105.56;5074973;28;20083;-71
2022/05/04 10:14:27;;;;;;;6.50;3.20;;;;;;;20.66;31.67;102106.28;5110740;28;20031;-70
2022/05/04 10:17:06;;;;;;;7.22;3.22;;;;;;;21.36;31.18;102099.97;5091595;28;20439;-71
2022/05/04 10:19:57;;;;;;;12.27;2.80;;;;;;;21.67;30.37;102109.91;5091613;28;20036;-70
2022/05/04 10:22:31;;;;;;;28.02;3.95;;;;;;;21.41;29.69;102110.28;5110356;28;20024;-69
2022/05/04 10:25:00;;;;;;;9.57;3.20;;;;;;;21.17;30.81;102103.13;5109963;28;20062;-70
2022/05/04 10:27:28;;;;;;;8.40;3.22;;;;;;;21.07;31.79;102103.38;5109937;28;20027;-70
2022/05/04 10:32:47;;;;;;;7.00;2.80;;;;;;;21.39;29.57;102101.47;5097994;28;20383;-72
2022/05/04 10:35:51;;;;;;;9.05;2.70;;;;;;;21.33;30.35;102103.03;5109631;28;20101;-70
2022/05/04 10:38:34;;;;;;;7.55;2.63;;;;;;;21.18;31.13;102096.72;5108408;28;20439;-70
2022/05/04 10:41:06;;;;;;;6.57;2.50;;;;;;;21.18;31.04;102100.25;5101976;28;20032;-71
2022/05/04 10:43:47;;;;;;;7.75;2.65;;;;;;;20.97;31.54;102098.19;5085310;28;20062;-70
2022/05/04 10:46:21;;;;;;;8.82;2.35;;;;;;;21.38;30.98;102099.78;5085484;28;20055;-71
2022/05/04 10:48:57;;;;;;;6.35;2.90;;;;;;;21.23;30.97;102103.28;5086321;28;20036;-73
2022/05/04 10:51:26;;;;;;;9.77;2.83;;;;;;;21.10;30.66;102098.44;5085401;28;20028;-71
2022/05/04 10:53:57;;;;;;;8.23;2.83;;;;;;;20.87;31.42;102102.97;5086720;28;20034;-69
2022/05/04 10:56:24;;;;;;;;;;;;;;;20.18;33.27;102096.28;5086039;28;20039;-71
2022/05/04 10:58:59;;;;;;;6.32;2.92;;;;;;;19.58;33.55;102104.72;5086157;28;20051;-74
2022/05/04 11:01:30;;;;;;;10.40;2.70;;;;;;;19.29;34.61;102100.66;5093666;28;20070;-69
2022/05/04 11:04:11;;;;;;;5.05;2.50;;;;;;;19.36;34.25;102107.91;5104530;28;20459;-70
2022/05/04 11:06:44;;;;;;;9.52;2.97;;;;;;;20.31;33.53;102100.28;5103104;28;20038;-68
2022/05/04 11:09:14;;;;;;;8.02;2.60;;;;;;;20.64;32.47;102101.00;5106945;28;20056;-69
2022/05/04 11:11:48;;;;;;;9.30;2.42;;;;;;;20.69;32.00;102103.22;5106364;28;20031;-70
2022/05/04 11:14:16;;;;;;;8.05;2.40;;;;;;;20.76;32.35;102102.34;5104474;28;20078;-71
2022/05/04 11:16:43;;;;;;;6.20;2.90;;;;;;;20.50;32.79;102101.75;5108089;28;20560;-70
2022/05/04 11:19:11;;;;;;;7.47;2.80;;;;;;;21.20;31.58;102106.34;5110051;28;20032;-69
2022/05/04 11:21:39;;;;;;;10.48;2.90;;;;;;;21.96;30.86;102101.03;5110844;28;20036;-70
2022/05/04 11:24:07;;;;;;;7.63;2.53;;;;;;;22.30;29.56;102105.09;5109401;28;20055;-71
2022/05/04 11:26:41;;;;;;;7.70;2.70;;;;;;;22.23;29.12;102104.16;5108852;28;20035;-71
2022/05/04 11:29:09;;;;;;;4.63;2.35;;;;;;;22.42;30.14;102105.47;5108361;28;20043;-71
2022/05/04 11:31:35;;;;;;;7.65;2.72;;;;;;;22.21;29.50;102105.34;5109092;28;20131;-70
2022/05/04 11:34:01;;;;;;;4.82;2.42;;;;;;;22.42;29.00;102101.94;5091463;28;20180;-69
2022/05/04 11:36:27;;;;;;;4.95;2.33;;;;;;;20.98;30.14;102093.63;5075200;28;20039;-70
2022/05/04 11:38:52;;;;;;;7.05;2.75;;;;;;;20.83;30.93;102107.91;5074742;28;20076;-76
2022/05/04 11:41:18;;;;;;;5.95;2.45;;;;;;;20.71;31.50;102099.31;5109445;28;20459;-75
2022/05/04 11:43:44;;;;;;;9.35;2.88;;;;;;;19.98;32.67;102093.09;5087051;28;20028;-71
2022/05/04 11:46:11;;;;;;;8.25;2.53;;;;;;;19.55;33.81;102095.09;5086390;28;20205;-73
2022/05/04 11:48:42;;;;;;;9.07;2.38;;;;;;;18.64;35.50;102102.94;5070646;28;20044;-71
2022/05/04 11:51:08;;;;;;;6.65;2.95;;;;;;;18.47;35.12;102104.72;5088723;28;20036;-71
2022/05/04 11:53:36;;;;;;;8.57;2.42;;;;;;;17.92;36.91;102088.91;5096918;28;20142;-70
2022/05/04 11:56:03;;;;;;;8.02;3.10;;;;;;;18.09;37.17;102095.22;5070175;28;20032;-71
2022/05/04 11:58:30;;;;;;;9.07;2.60;;;;;;;18.11;36.87;102095.94;5089392;28;20032;-73